Map

Track Data

SID SEASON NUMBER BASIN SUBBASIN NAME ISO_TIME NATURE LAT LON WMO_WIND WMO_PRES WMO_AGENCY TRACK_TYPE DIST2LAND LANDFALL IFLAG USA_AGENCY USA_ATCF_ID USA_LAT USA_LON USA_RECORD USA_STATUS USA_WIND USA_PRES USA_SSHS USA_R34_NE USA_R34_SE USA_R34_SW USA_R34_NW USA_R50_NE USA_R50_SE USA_R50_SW USA_R50_NW USA_R64_NE USA_R64_SE USA_R64_SW USA_R64_NW USA_POCI USA_ROCI USA_RMW USA_EYE TOKYO_LAT TOKYO_LON TOKYO_GRADE TOKYO_WIND TOKYO_PRES TOKYO_R50_DIR TOKYO_R50_LONG TOKYO_R50_SHORT TOKYO_R30_DIR TOKYO_R30_LONG TOKYO_R30_SHORT TOKYO_LAND CMA_LAT CMA_LON CMA_CAT CMA_WIND CMA_PRES HKO_LAT HKO_LON HKO_CAT HKO_WIND HKO_PRES NEWDELHI_LAT NEWDELHI_LON NEWDELHI_GRADE NEWDELHI_WIND NEWDELHI_PRES NEWDELHI_CI NEWDELHI_DP NEWDELHI_POCI REUNION_LAT REUNION_LON REUNION_TYPE REUNION_WIND REUNION_PRES REUNION_TNUM REUNION_CI REUNION_RMW REUNION_R34_NE REUNION_R34_SE REUNION_R34_SW REUNION_R34_NW REUNION_R50_NE REUNION_R50_SE REUNION_R50_SW REUNION_R50_NW REUNION_R64_NE REUNION_R64_SE REUNION_R64_SW REUNION_R64_NW BOM_LAT BOM_LON BOM_TYPE BOM_WIND BOM_PRES BOM_TNUM BOM_CI BOM_RMW BOM_R34_NE BOM_R34_SE BOM_R34_SW BOM_R34_NW BOM_R50_NE BOM_R50_SE BOM_R50_SW BOM_R50_NW BOM_R64_NE BOM_R64_SE BOM_R64_SW BOM_R64_NW BOM_ROCI BOM_POCI BOM_EYE BOM_POS_METHOD BOM_PRES_METHOD NADI_LAT NADI_LON NADI_CAT NADI_WIND NADI_PRES WELLINGTON_LAT WELLINGTON_LON WELLINGTON_WIND WELLINGTON_PRES DS824_LAT DS824_LON DS824_STAGE DS824_WIND DS824_PRES TD9636_LAT TD9636_LON TD9636_STAGE TD9636_WIND TD9636_PRES TD9635_LAT TD9635_LON TD9635_WIND TD9635_PRES TD9635_ROCI NEUMANN_LAT NEUMANN_LON NEUMANN_CLASS NEUMANN_WIND NEUMANN_PRES MLC_LAT MLC_LON MLC_CLASS MLC_WIND MLC_PRES USA_GUST BOM_GUST BOM_GUST_PER REUNION_GUST REUNION_GUST_PER USA_SEAHGT USA_SEARAD_NE USA_SEARAD_SE USA_SEARAD_SW USA_SEARAD_NW STORM_SPEED STORM_DIR
1934270N06140 1934 59 WP MM NOT_NAMED 1934-09-27 10:00:00 NR 5.70000 139.800 main 837 837 __________O___ -1 5.70000 139.800 7 4 327
1934270N06140 1934 59 WP MM NOT_NAMED 1934-09-27 12:00:00 NR 5.79937 139.729 main 845 845 __________P___ -1 5.79937 139.729 7 4 323
1934270N06140 1934 59 WP MM NOT_NAMED 1934-09-27 15:00:00 NR 5.98614 139.581 main 865 860 __________P___ -1 5.98614 139.581 7 6 319
1934270N06140 1934 59 WP MM NOT_NAMED 1934-09-27 18:00:00 NR 6.26998 139.324 main 880 880 __________P___ -1 6.26998 139.324 7 10 317
1934270N06140 1934 59 WP MM NOT_NAMED 1934-09-27 21:00:00 NR 6.70909 138.894 main 904 904 __________P___ -1 6.70909 138.894 7 13 315
1934270N06140 1934 59 WP MM NOT_NAMED 1934-09-27 22:00:00 NR 6.90000 138.700 main 917 917 __________O___ -1 6.90000 138.700 7 19 314
1934270N06140 1934 59 WP MM NOT_NAMED 1934-09-28 00:00:00 NR 7.35353 138.229 main 952 949 __________P___ -1 7.35353 138.229 7 22 313
1934270N06140 1934 59 WP MM NOT_NAMED 1934-09-28 03:00:00 NR 8.16061 137.346 main 1014 1014 __________P___ -1 8.16061 137.346 7 25 311
1934270N06140 1934 59 WP MM NOT_NAMED 1934-09-28 06:00:00 NR 9.02790 136.309 main 1077 974 __________P___ -1 9.02790 136.309 7 27 308
1934270N06140 1934 59 WP MM NOT_NAMED 1934-09-28 09:00:00 NR 9.85235 135.183 main 977 948 __________P___ -1 9.85235 135.183 7 28 306
1934270N06140 1934 59 WP MM NOT_NAMED 1934-09-28 10:00:00 NR 10.1000 134.800 main 940 865 __________O___ -1 10.1000 134.800 7 26 300
1934270N06140 1934 59 WP MM NOT_NAMED 1934-09-28 12:00:00 NR 10.5021 134.023 main 865 750 __________P___ -1 10.5021 134.023 7 26 295
1934270N06140 1934 59 WP MM NOT_NAMED 1934-09-28 15:00:00 NR 11.0235 132.814 main 750 635 __________P___ -1 11.0235 132.814 7 26 292
1934270N06140 1934 59 WP MM NOT_NAMED 1934-09-28 18:00:00 NR 11.4707 131.621 main 635 522 __________P___ -1 11.4707 131.621 7 24 291
1934270N06140 1934 59 WP MM NOT_NAMED 1934-09-28 21:00:00 NR 11.8716 130.528 main 522 503 __________P___ -1 11.8716 130.528 7 22 291
1934270N06140 1934 59 WP MM NOT_NAMED 1934-09-28 22:00:00 NR 12.0000 130.200 main 492 438 __________O___ -1 12.0000 130.200 7 19 294
1934270N06140 1934 59 WP MM NOT_NAMED 1934-09-29 00:00:00 NR 12.2551 129.637 main 438 372 __________P___ -1 12.2551 129.637 7 17 296
1934270N06140 1934 59 WP MM NOT_NAMED 1934-09-29 03:00:00 NR 12.6139 128.914 main 372 316 __________P___ -1 12.6139 128.914 7 15 299
1934270N06140 1934 59 WP MM NOT_NAMED 1934-09-29 06:00:00 NR 12.9716 128.287 main 316 268 __________P___ -1 12.9716 128.287 7 14 302
1934270N06140 1934 59 WP MM NOT_NAMED 1934-09-29 09:00:00 NR 13.3591 127.698 main 273 261 __________P___ -1 13.3591 127.698 7 14 305
1934270N06140 1934 59 WP MM NOT_NAMED 1934-09-29 10:00:00 NR 13.5000 127.500 main 261 249 __________O___ -1 13.5000 127.500 7 15 308
1934270N06140 1934 59 WP MM NOT_NAMED 1934-09-29 12:00:00 NR 13.8227 127.081 main 249 230 __________P___ -1 13.8227 127.081 7 16 310
1934270N06140 1934 59 WP MM NOT_NAMED 1934-09-29 15:00:00 NR 14.3453 126.461 main 230 187 __________P___ -1 14.3453 126.461 7 16 311
1934270N06140 1934 59 WP MM NOT_NAMED 1934-09-29 18:00:00 NR 14.8894 125.823 main 187 178 __________P___ -1 14.8894 125.823 7 17 310
1934270N06140 1934 59 WP MM NOT_NAMED 1934-09-29 21:00:00 NR 15.4271 125.142 main 178 184 __________P___ -1 15.4271 125.142 7 17 309
1934270N06140 1934 59 WP MM NOT_NAMED 1934-09-29 22:00:00 NR 15.6000 124.900 main 190 190 __________O___ -1 15.6000 124.900 4 18 305
1934270N06140 1934 59 WP MM NOT_NAMED 1934-09-30 00:00:00 NR 15.9435 124.374 main 212 120 __________P___ -1 15.9435 124.374 4 19 303
1934270N06140 1934 59 WP MM NOT_NAMED 1934-09-30 03:00:00 NR 16.4403 123.535 main 120 21 __________P___ -1 16.4403 123.535 4 19 300
1934270N06140 1934 59 WP MM NOT_NAMED 1934-09-30 06:00:00 NR 16.8955 122.662 main 21 0 __________P___ -1 16.8955 122.662 4 19 297
1934270N06140 1934 59 WP MM NOT_NAMED 1934-09-30 09:00:00 NR 17.2872 121.787 main 0 0 __________P___ -1 17.2872 121.787 4 18 294
1934270N06140 1934 59 WP MM NOT_NAMED 1934-09-30 10:00:00 NR 17.4000 121.500 main 0 0 __________O___ -1 17.4000 121.500 4 17 292
1934270N06140 1934 59 WP MM NOT_NAMED 1934-09-30 12:00:00 NR 17.6157 120.955 main 0 0 __________P___ -1 17.6157 120.955 4 16 290
1934270N06140 1934 59 WP MM NOT_NAMED 1934-09-30 15:00:00 NR 17.8774 120.150 main 30 38 __________P___ -1 17.8774 120.150 4 16 286
1934270N06140 1934 59 WP MM NOT_NAMED 1934-09-30 18:00:00 NR 18.0651 119.356 main 110 119 __________P___ -1 18.0651 119.356 4 15 281
1934270N06140 1934 59 WP MM NOT_NAMED 1934-09-30 21:00:00 NR 18.1787 118.564 main 192 201 __________P___ -1 18.1787 118.564 4 15 278
1934270N06140 1934 59 WP MM NOT_NAMED 1934-09-30 22:00:00 NR 18.2000 118.300 main 222 222 __________O___ -1 18.2000 118.300 4 15 273
1934270N06140 1934 59 WP MM NOT_NAMED 1934-10-01 00:00:00 NR 18.2152 117.765 main 272 283 __________P___ -1 18.2152 117.765 4 15 269
1934270N06140 1934 59 WP MM NOT_NAMED 1934-10-01 03:00:00 NR 18.1752 116.964 main 355 366 __________P___ -1 18.1752 116.964 4 15 266
1934270N06140 1934 59 WP MM NOT_NAMED 1934-10-01 06:00:00 NR 18.0961 116.165 main 432 441 __________P___ -1 18.0961 116.165 4 15 264
1934270N06140 1934 59 WP MM NOT_NAMED 1934-10-01 09:00:00 NR 18.0185 115.366 main 494 467 __________P___ -1 18.0185 115.366 4 15 265
1934270N06140 1934 59 WP MM NOT_NAMED 1934-10-01 10:00:00 NR 18.0000 115.100 main 467 409 __________O___ -1 18.0000 115.100 4 16 266
1934270N06140 1934 59 WP MM NOT_NAMED 1934-10-01 12:00:00 NR 17.9681 114.537 main 409 342 __________P___ -1 17.9681 114.537 4 16 267
1934270N06140 1934 59 WP MM NOT_NAMED 1934-10-01 15:00:00 NR 17.9388 113.693 main 342 267 __________P___ -1 17.9388 113.693 4 16 270
1934270N06140 1934 59 WP MM NOT_NAMED 1934-10-01 18:00:00 NR 17.9561 112.879 main 267 191 __________P___ -1 17.9561 112.879 4 15 274
1934270N06140 1934 59 WP MM NOT_NAMED 1934-10-01 21:00:00 NR 18.0479 112.129 main 191 167 __________P___ -1 18.0479 112.129 4 14 279
1934270N06140 1934 59 WP MM NOT_NAMED 1934-10-01 22:00:00 NR 18.1000 111.900 main 167 125 __________O___ -1 18.1000 111.900 4 13 288
1934270N06140 1934 59 WP MM NOT_NAMED 1934-10-02 00:00:00 NR 18.2469 111.485 main 125 53 __________P___ -1 18.2469 111.485 4 12 296
1934270N06140 1934 59 WP MM NOT_NAMED 1934-10-02 03:00:00 NR 18.5440 110.932 main 53 0 __________P___ -1 18.5440 110.932 4 12 303
1934270N06140 1934 59 WP MM NOT_NAMED 1934-10-02 06:00:00 NR 18.8998 110.433 main 0 0 __________P___ -1 18.8998 110.433 4 12 308
1934270N06140 1934 59 WP MM NOT_NAMED 1934-10-02 09:00:00 NR 19.2764 109.958 main 0 0 __________P___ -1 19.2764 109.958 4 12 310
1934270N06140 1934 59 WP MM NOT_NAMED 1934-10-02 10:00:00 NR 19.4000 109.800 main 0 0 __________O___ -1 19.4000 109.800 4 12 309
1934270N06140 1934 59 WP MM NOT_NAMED 1934-10-02 12:00:00 NR 19.6379 109.479 main 0 0 __________P___ -1 19.6379 109.479 4 12 307
1934270N06140 1934 59 WP MM NOT_NAMED 1934-10-02 15:00:00 NR 19.9742 108.985 main 38 38 __________P___ -1 19.9742 108.985 4 11 305
1934270N06140 1934 59 WP MM NOT_NAMED 1934-10-02 18:00:00 NR 20.2922 108.482 main 98 76 __________P___ -1 20.2922 108.482 4 11 303
1934270N06140 1934 59 WP MM NOT_NAMED 1934-10-02 21:00:00 NR 20.5990 107.971 main 76 53 __________P___ -1 20.5990 107.971 4 11 303
1934270N06140 1934 59 WP MM NOT_NAMED 1934-10-02 22:00:00 NR 20.7000 107.800 main 53 __________O___ -1 20.7000 107.800 4 11 302

Digital Typhoon Data and Search

About IBTrACS Database

This database is a web-friendly format of International Best Track Archive for Climate Stewardship (IBTrACS), a global best track data archive curated by NOAA dating back to 1842.

Updated: 2021-11-26